Aviation Digital Data Service (ADDS)

Output produced by METARs form (1713 UTC 03 December 2021)
found at http://www.aviationweather.gov/metar/data/
 
VTCC 031700Z 00000KT 9999 FEW035 18/17 Q1020 NOSIG
VTCC 031630Z VRB02KT 9999 FEW035 19/17 Q1019 NOSIG
VTCC 031600Z VRB01KT 9999 FEW035 19/17 Q1019 NOSIG
VTCC 031530Z VRB02KT 9999 FEW035 19/17 Q1019 NOSIG
VTCC 031500Z VRB02KT 9999 FEW035 20/16 Q1019 NOSIG
VTCC 031430Z VRB02KT 9999 FEW035 20/16 Q1019 NOSIG
VTCC 031400Z 33004KT 9999 FEW035 20/16 Q1018 NOSIG
VTCC 031330Z 26003KT 220V330 9999 FEW035 21/16 Q1018 NOSIG
VTCC 031300Z 25003KT 210V280 9999 FEW035 21/16 Q1018 NOSIG
VTCC 031230Z VRB02KT 9999 FEW035 21/16 Q1017 NOSIG
VTCC 031200Z 00000KT 9999 FEW035 21/16 Q1017 NOSIG
VTCC 031130Z 25003KT 190V320 9999 FEW035 22/17 Q1016 NOSIG
VTCC 031100Z 29003KT 270V330 9999 FEW035 24/16 Q1016 NOSIG
VTCC 031030Z 31003KT 270V340 9999 FEW035 25/15 Q1016 NOSIG
VTCC 031000Z 32005KT 9999 SCT035 26/14 Q1015 NOSIG
VTCC 030930Z 30005KT 260V020 9999 SCT035 27/14 Q1015 NOSIG
VTCC 030900Z VRB02KT 9999 SCT035 27/14 Q1015 NOSIG
VTCC 030830Z 03005KT 9999 SCT035 27/14 Q1016 NOSIG
VTCC 030800Z 03005KT 9999 SCT035 27/14 Q1016 NOSIG
VTCC 030730Z VRB03KT 9999 SCT035 28/15 Q1016 NOSIG
VTCC 030700Z 01005KT 340V060 9999 SCT035 27/15 Q1017 NOSIG
VTCC 030630Z 01005KT 300V080 9999 SCT035 27/15 Q1017 NOSIG
VTCC 030600Z 33003KT 260V040 9999 SCT035 26/15 Q1018 NOSIG
VTCC 030530Z 36008KT 9999 FEW035 25/15 Q1019 NOSIG
VTCC 030500Z 36008KT 9999 FEW035 25/15 Q1019 NOSIG
VTCC 030430Z 02008KT 350V060 9999 FEW035 25/15 Q1019 NOSIG
VTCC 030400Z 01010KT 340V050 9999 FEW035 25/15 Q1020 NOSIG
VTCC 030330Z 03009KT 9999 FEW035 24/14 Q1020 NOSIG
VTCC 030300Z 36004KT 9999 FEW035 23/16 Q1020 NOSIG
VTCC 030230Z 03003KT 310V100 9999 FEW035 22/16 Q1021 NOSIG
VTCC 030200Z 05004KT 010V080 9999 FEW020 22/16 Q1020 NOSIG
VTCC 030130Z 03003KT 310V120 9999 FEW035 21/15 Q1020 NOSIG
VTCC 030100Z VRB02KT 9000 FEW018 20/17 Q1019 NOSIG
VTCC 030030Z VRB02KT 9999 FEW035 19/17 Q1019 NOSIG
VTCC 030000Z VRB02KT 9999 SCT035 19/17 Q1019 NOSIG
VTCC 022330Z 32003KT 290V350 9999 FEW035 SCT080 20/16 Q1018 NOSIG
VTCC 022300Z 35007KT 9999 BKN035 19/15 Q1018 NOSIG
VTCC 022230Z 01005KT 350V060 9999 BKN035 20/15 Q1018 NOSIG
VTCC 022200Z 35005KT 9999 BKN035 21/17 Q1018 NOSIG
VTCC 022130Z 36004KT 9999 BKN035 21/16 Q1018 NOSIG
VTCC 022100Z 36005KT 330V030 9999 BKN035 21/16 Q1018 NOSIG
VTCC 022030Z VRB01KT 9999 BKN035 21/18 Q1018 NOSIG
VTCC 022000Z 00000KT 9999 BKN035 21/18 Q1018 NOSIG
VTCC 021930Z VRB02KT 9999 BKN035 21/18 Q1018 NOSIG
VTCC 021900Z VRB02KT 9999 BKN035 21/18 Q1018 NOSIG
VTCC 021830Z VRB01KT 9999 BKN035 21/18 Q1018 NOSIG
VTCC 021800Z 00000KT 9999 BKN035 21/17 Q1018 NOSIG
VTCC 021730Z 00000KT 9999 BKN035 22/17 Q1018 NOSIG
VTCC 021700Z 29002KT 9999 BKN035 22/17 Q1018 NOSIG
VTCC 021630Z 04003KT 9999 BKN035 22/17 Q1018 NOSIG
TAF VTCC 031100Z 0312/0418 35005KT 9999 SCT035 
     BECMG 0400/0402 05005KT 
     BECMG 0406/0408 14005KT 
     BECMG 0410/0412 36005KT